sensor_id;sensor_type;location;lat;lon;timestamp;P1;durP1;ratioP1;P2;durP2;ratioP2
13032;SDS011;6583;42.632;23.298;2023-03-04T00:01:05;30.17;;;18.93;;
13032;SDS011;6583;42.632;23.298;2023-03-04T00:03:32;30.13;;;20.67;;
13032;SDS011;6583;42.632;23.298;2023-03-04T00:05:58;31.83;;;20.17;;
13032;SDS011;6583;42.632;23.298;2023-03-04T00:08:25;33.80;;;21.37;;
13032;SDS011;6583;42.632;23.298;2023-03-04T00:10:52;35.20;;;22.33;;
13032;SDS011;6583;42.632;23.298;2023-03-04T00:13:20;35.00;;;21.83;;
13032;SDS011;6583;42.632;23.298;2023-03-04T00:15:48;37.90;;;20.93;;
13032;SDS011;6583;42.632;23.298;2023-03-04T00:18:15;35.47;;;20.37;;
13032;SDS011;6583;42.632;23.298;2023-03-04T00:20:41;34.63;;;22.03;;
13032;SDS011;6583;42.632;23.298;2023-03-04T00:23:08;33.57;;;20.87;;
13032;SDS011;6583;42.632;23.298;2023-03-04T00:25:35;35.20;;;22.70;;
13032;SDS011;6583;42.632;23.298;2023-03-04T00:28:01;35.60;;;22.50;;
13032;SDS011;6583;42.632;23.298;2023-03-04T00:30:30;34.37;;;21.80;;
13032;SDS011;6583;42.632;23.298;2023-03-04T00:32:56;34.23;;;22.23;;
13032;SDS011;6583;42.632;23.298;2023-03-04T00:35:23;38.67;;;24.10;;
13032;SDS011;6583;42.632;23.298;2023-03-04T00:37:50;35.97;;;24.47;;
13032;SDS011;6583;42.632;23.298;2023-03-04T00:40:16;43.47;;;26.60;;
13032;SDS011;6583;42.632;23.298;2023-03-04T00:42:43;81.23;;;27.50;;
13032;SDS011;6583;42.632;23.298;2023-03-04T00:45:10;63.50;;;26.90;;
13032;SDS011;6583;42.632;23.298;2023-03-04T00:47:38;40.30;;;24.67;;
13032;SDS011;6583;42.632;23.298;2023-03-04T00:50:05;35.80;;;22.03;;
13032;SDS011;6583;42.632;23.298;2023-03-04T00:52:32;74.53;;;24.77;;
13032;SDS011;6583;42.632;23.298;2023-03-04T00:54:59;118.30;;;26.03;;
13032;SDS011;6583;42.632;23.298;2023-03-04T00:57:25;39.67;;;23.13;;
13032;SDS011;6583;42.632;23.298;2023-03-04T00:59:52;39.00;;;23.53;;
13032;SDS011;6583;42.632;23.298;2023-03-04T01:02:19;38.37;;;24.07;;
13032;SDS011;6583;42.632;23.298;2023-03-04T01:04:47;37.50;;;22.60;;
13032;SDS011;6583;42.632;23.298;2023-03-04T01:07:13;36.13;;;23.00;;
13032;SDS011;6583;42.632;23.298;2023-03-04T01:09:40;37.63;;;23.17;;
13032;SDS011;6583;42.632;23.298;2023-03-04T01:12:07;31.97;;;20.23;;
13032;SDS011;6583;42.632;23.298;2023-03-04T01:14:33;34.07;;;21.87;;
13032;SDS011;6583;42.632;23.298;2023-03-04T01:17:00;34.90;;;22.83;;
13032;SDS011;6583;42.632;23.298;2023-03-04T01:19:27;38.20;;;23.00;;
13032;SDS011;6583;42.632;23.298;2023-03-04T01:21:55;34.97;;;20.80;;
13032;SDS011;6583;42.632;23.298;2023-03-04T01:24:22;33.63;;;20.63;;
13032;SDS011;6583;42.632;23.298;2023-03-04T01:26:48;32.00;;;20.53;;
13032;SDS011;6583;42.632;23.298;2023-03-04T01:29:16;31.43;;;19.77;;
13032;SDS011;6583;42.632;23.298;2023-03-04T01:31:42;34.97;;;20.37;;
13032;SDS011;6583;42.632;23.298;2023-03-04T01:34:09;32.77;;;19.80;;
13032;SDS011;6583;42.632;23.298;2023-03-04T01:36:36;34.50;;;20.90;;
13032;SDS011;6583;42.632;23.298;2023-03-04T01:39:04;38.47;;;22.77;;
13032;SDS011;6583;42.632;23.298;2023-03-04T01:41:31;36.63;;;23.57;;
13032;SDS011;6583;42.632;23.298;2023-03-04T01:43:58;36.57;;;23.00;;
13032;SDS011;6583;42.632;23.298;2023-03-04T01:46:26;34.80;;;21.93;;
13032;SDS011;6583;42.632;23.298;2023-03-04T01:48:53;34.00;;;21.63;;
13032;SDS011;6583;42.632;23.298;2023-03-04T01:51:20;31.93;;;20.57;;
13032;SDS011;6583;42.632;23.298;2023-03-04T01:53:48;34.27;;;20.67;;
13032;SDS011;6583;42.632;23.298;2023-03-04T01:56:21;46.57;;;27.63;;
13032;SDS011;6583;42.632;23.298;2023-03-04T02:01:35;33.60;;;21.83;;
13032;SDS011;6583;42.632;23.298;2023-03-04T02:04:03;30.43;;;19.70;;
13032;SDS011;6583;42.632;23.298;2023-03-04T02:06:30;29.37;;;19.50;;
13032;SDS011;6583;42.632;23.298;2023-03-04T02:08:57;30.13;;;19.97;;
13032;SDS011;6583;42.632;23.298;2023-03-04T02:11:25;31.67;;;20.40;;
13032;SDS011;6583;42.632;23.298;2023-03-04T02:13:52;31.47;;;20.33;;
13032;SDS011;6583;42.632;23.298;2023-03-04T02:16:18;31.20;;;19.63;;
13032;SDS011;6583;42.632;23.298;2023-03-04T02:18:45;28.77;;;18.43;;
13032;SDS011;6583;42.632;23.298;2023-03-04T02:21:13;26.20;;;17.73;;
13032;SDS011;6583;42.632;23.298;2023-03-04T02:23:44;27.93;;;18.67;;
13032;SDS011;6583;42.632;23.298;2023-03-04T02:26:19;26.67;;;17.60;;
13032;SDS011;6583;42.632;23.298;2023-03-04T02:28:48;26.93;;;18.23;;
13032;SDS011;6583;42.632;23.298;2023-03-04T02:31:21;27.43;;;18.00;;
13032;SDS011;6583;42.632;23.298;2023-03-04T02:33:50;25.70;;;17.63;;
13032;SDS011;6583;42.632;23.298;2023-03-04T02:36:18;27.97;;;17.10;;
13032;SDS011;6583;42.632;23.298;2023-03-04T02:38:44;25.50;;;17.00;;
13032;SDS011;6583;42.632;23.298;2023-03-04T02:41:11;26.37;;;18.07;;
13032;SDS011;6583;42.632;23.298;2023-03-04T02:43:42;25.77;;;17.23;;
13032;SDS011;6583;42.632;23.298;2023-03-04T02:46:10;25.47;;;17.13;;
13032;SDS011;6583;42.632;23.298;2023-03-04T02:48:38;27.03;;;17.50;;
13032;SDS011;6583;42.632;23.298;2023-03-04T02:51:04;25.83;;;16.50;;
13032;SDS011;6583;42.632;23.298;2023-03-04T02:53:31;27.67;;;18.17;;
13032;SDS011;6583;42.632;23.298;2023-03-04T02:55:58;30.10;;;17.53;;
13032;SDS011;6583;42.632;23.298;2023-03-04T02:58:24;25.70;;;17.50;;
13032;SDS011;6583;42.632;23.298;2023-03-04T03:00:52;28.83;;;19.37;;
13032;SDS011;6583;42.632;23.298;2023-03-04T03:03:19;27.17;;;18.63;;
13032;SDS011;6583;42.632;23.298;2023-03-04T03:05:46;34.13;;;20.83;;
13032;SDS011;6583;42.632;23.298;2023-03-04T03:08:12;30.80;;;19.80;;
13032;SDS011;6583;42.632;23.298;2023-03-04T03:10:39;26.77;;;17.57;;
13032;SDS011;6583;42.632;23.298;2023-03-04T03:13:06;29.57;;;18.07;;
13032;SDS011;6583;42.632;23.298;2023-03-04T03:15:33;29.20;;;18.30;;
13032;SDS011;6583;42.632;23.298;2023-03-04T03:18:01;32.13;;;19.67;;
13032;SDS011;6583;42.632;23.298;2023-03-04T03:20:27;26.90;;;17.80;;
13032;SDS011;6583;42.632;23.298;2023-03-04T03:22:54;28.70;;;18.10;;
13032;SDS011;6583;42.632;23.298;2023-03-04T03:25:20;29.50;;;17.83;;
13032;SDS011;6583;42.632;23.298;2023-03-04T03:27:47;29.73;;;17.90;;
13032;SDS011;6583;42.632;23.298;2023-03-04T03:30:14;27.43;;;16.70;;
13032;SDS011;6583;42.632;23.298;2023-03-04T03:32:41;27.40;;;17.47;;
13032;SDS011;6583;42.632;23.298;2023-03-04T03:35:09;28.90;;;17.67;;
13032;SDS011;6583;42.632;23.298;2023-03-04T03:37:36;28.13;;;17.10;;
13032;SDS011;6583;42.632;23.298;2023-03-04T03:40:03;29.03;;;17.50;;
13032;SDS011;6583;42.632;23.298;2023-03-04T03:42:31;26.10;;;15.80;;
13032;SDS011;6583;42.632;23.298;2023-03-04T03:44:57;25.37;;;15.70;;
13032;SDS011;6583;42.632;23.298;2023-03-04T03:47:24;24.33;;;15.53;;
13032;SDS011;6583;42.632;23.298;2023-03-04T03:49:51;19.67;;;13.07;;
13032;SDS011;6583;42.632;23.298;2023-03-04T03:52:19;18.77;;;12.20;;
13032;SDS011;6583;42.632;23.298;2023-03-04T03:54:45;17.30;;;10.80;;
13032;SDS011;6583;42.632;23.298;2023-03-04T03:57:12;14.43;;;9.47;;
13032;SDS011;6583;42.632;23.298;2023-03-04T03:59:38;13.63;;;7.73;;
13032;SDS011;6583;42.632;23.298;2023-03-04T04:02:05;11.63;;;7.10;;
13032;SDS011;6583;42.632;23.298;2023-03-04T04:04:32;11.27;;;6.70;;
13032;SDS011;6583;42.632;23.298;2023-03-04T04:06:58;11.20;;;7.47;;
13032;SDS011;6583;42.632;23.298;2023-03-04T04:09:26;10.40;;;6.03;;
13032;SDS011;6583;42.632;23.298;2023-03-04T04:11:53;8.40;;;5.77;;
13032;SDS011;6583;42.632;23.298;2023-03-04T04:14:20;8.93;;;5.57;;
13032;SDS011;6583;42.632;23.298;2023-03-04T04:16:46;8.30;;;5.57;;
13032;SDS011;6583;42.632;23.298;2023-03-04T04:19:15;7.60;;;4.93;;
13032;SDS011;6583;42.632;23.298;2023-03-04T04:21:43;9.07;;;4.90;;
13032;SDS011;6583;42.632;23.298;2023-03-04T04:24:11;7.93;;;5.00;;
13032;SDS011;6583;42.632;23.298;2023-03-04T04:26:39;11.00;;;5.93;;
13032;SDS011;6583;42.632;23.298;2023-03-04T04:29:06;9.47;;;5.70;;
13032;SDS011;6583;42.632;23.298;2023-03-04T04:31:33;7.87;;;4.97;;
13032;SDS011;6583;42.632;23.298;2023-03-04T04:34:00;10.37;;;5.30;;
13032;SDS011;6583;42.632;23.298;2023-03-04T04:36:27;10.30;;;5.07;;
13032;SDS011;6583;42.632;23.298;2023-03-04T04:38:54;8.53;;;4.83;;
13032;SDS011;6583;42.632;23.298;2023-03-04T04:41:22;12.90;;;5.17;;
13032;SDS011;6583;42.632;23.298;2023-03-04T04:43:51;8.33;;;4.73;;
13032;SDS011;6583;42.632;23.298;2023-03-04T04:46:18;7.67;;;4.97;;
13032;SDS011;6583;42.632;23.298;2023-03-04T04:48:45;9.23;;;5.37;;
13032;SDS011;6583;42.632;23.298;2023-03-04T04:51:12;11.60;;;5.43;;
13032;SDS011;6583;42.632;23.298;2023-03-04T04:53:39;8.13;;;4.80;;
13032;SDS011;6583;42.632;23.298;2023-03-04T04:56:09;8.13;;;5.10;;
13032;SDS011;6583;42.632;23.298;2023-03-04T04:58:37;10.87;;;5.70;;
13032;SDS011;6583;42.632;23.298;2023-03-04T05:01:06;8.53;;;5.07;;
13032;SDS011;6583;42.632;23.298;2023-03-04T05:03:33;10.43;;;4.93;;
13032;SDS011;6583;42.632;23.298;2023-03-04T05:06:02;8.90;;;5.30;;
13032;SDS011;6583;42.632;23.298;2023-03-04T05:08:30;6.63;;;4.90;;
13032;SDS011;6583;42.632;23.298;2023-03-04T05:10:57;10.23;;;4.93;;
13032;SDS011;6583;42.632;23.298;2023-03-04T05:13:23;7.77;;;5.10;;
13032;SDS011;6583;42.632;23.298;2023-03-04T05:15:50;8.97;;;5.17;;
13032;SDS011;6583;42.632;23.298;2023-03-04T05:18:19;7.90;;;5.63;;
13032;SDS011;6583;42.632;23.298;2023-03-04T05:20:48;9.20;;;5.23;;
13032;SDS011;6583;42.632;23.298;2023-03-04T05:23:16;9.83;;;5.07;;
13032;SDS011;6583;42.632;23.298;2023-03-04T05:25:43;9.90;;;5.27;;
13032;SDS011;6583;42.632;23.298;2023-03-04T05:28:09;8.07;;;5.10;;
13032;SDS011;6583;42.632;23.298;2023-03-04T05:30:37;9.70;;;5.00;;
13032;SDS011;6583;42.632;23.298;2023-03-04T05:33:03;10.90;;;5.50;;
13032;SDS011;6583;42.632;23.298;2023-03-04T05:35:32;7.90;;;5.03;;
13032;SDS011;6583;42.632;23.298;2023-03-04T05:37:59;10.63;;;4.73;;
13032;SDS011;6583;42.632;23.298;2023-03-04T05:40:26;13.77;;;5.70;;
13032;SDS011;6583;42.632;23.298;2023-03-04T05:42:53;13.93;;;5.73;;
13032;SDS011;6583;42.632;23.298;2023-03-04T05:45:20;9.40;;;5.10;;
13032;SDS011;6583;42.632;23.298;2023-03-04T05:47:47;7.83;;;5.40;;
13032;SDS011;6583;42.632;23.298;2023-03-04T05:50:14;11.13;;;5.80;;
13032;SDS011;6583;42.632;23.298;2023-03-04T05:52:42;10.23;;;5.80;;
13032;SDS011;6583;42.632;23.298;2023-03-04T05:55:09;10.37;;;7.60;;
13032;SDS011;6583;42.632;23.298;2023-03-04T05:57:36;12.03;;;7.23;;
13032;SDS011;6583;42.632;23.298;2023-03-04T06:00:03;10.57;;;7.13;;
13032;SDS011;6583;42.632;23.298;2023-03-04T06:02:33;12.63;;;7.23;;
13032;SDS011;6583;42.632;23.298;2023-03-04T06:05:00;10.17;;;6.27;;
13032;SDS011;6583;42.632;23.298;2023-03-04T06:07:27;10.67;;;6.20;;
13032;SDS011;6583;42.632;23.298;2023-03-04T06:09:55;14.87;;;7.60;;
13032;SDS011;6583;42.632;23.298;2023-03-04T06:12:21;15.43;;;6.80;;
13032;SDS011;6583;42.632;23.298;2023-03-04T06:14:48;13.07;;;8.40;;
13032;SDS011;6583;42.632;23.298;2023-03-04T06:17:15;13.77;;;7.90;;
13032;SDS011;6583;42.632;23.298;2023-03-04T06:19:42;14.07;;;8.27;;
13032;SDS011;6583;42.632;23.298;2023-03-04T06:22:09;12.07;;;7.70;;
13032;SDS011;6583;42.632;23.298;2023-03-04T06:24:36;16.27;;;9.50;;
13032;SDS011;6583;42.632;23.298;2023-03-04T06:27:04;12.87;;;8.97;;
13032;SDS011;6583;42.632;23.298;2023-03-04T06:29:31;15.43;;;8.97;;
13032;SDS011;6583;42.632;23.298;2023-03-04T06:31:58;11.63;;;7.87;;
13032;SDS011;6583;42.632;23.298;2023-03-04T06:34:24;10.43;;;7.77;;
13032;SDS011;6583;42.632;23.298;2023-03-04T06:36:52;14.17;;;8.53;;
13032;SDS011;6583;42.632;23.298;2023-03-04T06:39:18;12.33;;;9.17;;
13032;SDS011;6583;42.632;23.298;2023-03-04T06:41:45;18.77;;;12.03;;
13032;SDS011;6583;42.632;23.298;2023-03-04T06:44:13;20.60;;;13.20;;
13032;SDS011;6583;42.632;23.298;2023-03-04T06:46:40;21.33;;;13.97;;
13032;SDS011;6583;42.632;23.298;2023-03-04T06:49:06;22.57;;;12.80;;
13032;SDS011;6583;42.632;23.298;2023-03-04T06:51:33;21.03;;;12.90;;
13032;SDS011;6583;42.632;23.298;2023-03-04T06:54:00;20.63;;;14.00;;
13032;SDS011;6583;42.632;23.298;2023-03-04T06:56:27;25.43;;;15.30;;
13032;SDS011;6583;42.632;23.298;2023-03-04T06:58:54;21.33;;;14.10;;
13032;SDS011;6583;42.632;23.298;2023-03-04T07:01:23;21.30;;;14.63;;
13032;SDS011;6583;42.632;23.298;2023-03-04T07:03:51;24.30;;;15.13;;
13032;SDS011;6583;42.632;23.298;2023-03-04T07:06:20;22.67;;;14.80;;
13032;SDS011;6583;42.632;23.298;2023-03-04T07:08:49;25.40;;;15.80;;
13032;SDS011;6583;42.632;23.298;2023-03-04T07:11:16;26.57;;;16.67;;
13032;SDS011;6583;42.632;23.298;2023-03-04T07:13:43;32.87;;;23.17;;
13032;SDS011;6583;42.632;23.298;2023-03-04T07:16:11;25.30;;;17.70;;
13032;SDS011;6583;42.632;23.298;2023-03-04T07:18:40;27.23;;;17.60;;
13032;SDS011;6583;42.632;23.298;2023-03-04T07:21:07;26.43;;;16.90;;
13032;SDS011;6583;42.632;23.298;2023-03-04T07:23:34;27.43;;;16.53;;
13032;SDS011;6583;42.632;23.298;2023-03-04T07:26:02;24.17;;;16.33;;
13032;SDS011;6583;42.632;23.298;2023-03-04T07:28:29;22.40;;;14.90;;
13032;SDS011;6583;42.632;23.298;2023-03-04T07:30:56;25.20;;;17.23;;
13032;SDS011;6583;42.632;23.298;2023-03-04T07:33:23;25.17;;;16.90;;
13032;SDS011;6583;42.632;23.298;2023-03-04T07:35:58;24.97;;;16.43;;
13032;SDS011;6583;42.632;23.298;2023-03-04T07:38:25;26.63;;;16.20;;
13032;SDS011;6583;42.632;23.298;2023-03-04T07:40:53;26.70;;;16.90;;
13032;SDS011;6583;42.632;23.298;2023-03-04T07:43:21;26.60;;;17.00;;
13032;SDS011;6583;42.632;23.298;2023-03-04T07:45:47;26.07;;;16.40;;
13032;SDS011;6583;42.632;23.298;2023-03-04T07:48:14;28.30;;;18.33;;
13032;SDS011;6583;42.632;23.298;2023-03-04T07:50:41;27.50;;;19.07;;
13032;SDS011;6583;42.632;23.298;2023-03-04T07:53:09;25.63;;;16.87;;
13032;SDS011;6583;42.632;23.298;2023-03-04T07:55:35;27.23;;;17.73;;
13032;SDS011;6583;42.632;23.298;2023-03-04T07:58:02;29.10;;;18.20;;
13032;SDS011;6583;42.632;23.298;2023-03-04T08:00:29;30.50;;;17.70;;
13032;SDS011;6583;42.632;23.298;2023-03-04T08:02:56;27.93;;;17.70;;
13032;SDS011;6583;42.632;23.298;2023-03-04T08:05:22;26.70;;;17.40;;
13032;SDS011;6583;42.632;23.298;2023-03-04T08:07:49;26.53;;;15.97;;
13032;SDS011;6583;42.632;23.298;2023-03-04T08:10:17;25.57;;;15.53;;
13032;SDS011;6583;42.632;23.298;2023-03-04T08:12:44;25.80;;;15.37;;
13032;SDS011;6583;42.632;23.298;2023-03-04T08:15:10;21.90;;;14.67;;
13032;SDS011;6583;42.632;23.298;2023-03-04T08:17:37;21.73;;;13.53;;
13032;SDS011;6583;42.632;23.298;2023-03-04T08:20:04;21.60;;;14.47;;
13032;SDS011;6583;42.632;23.298;2023-03-04T08:22:31;23.60;;;14.63;;
13032;SDS011;6583;42.632;23.298;2023-03-04T08:24:58;23.07;;;14.97;;
13032;SDS011;6583;42.632;23.298;2023-03-04T08:27:26;24.47;;;15.37;;
13032;SDS011;6583;42.632;23.298;2023-03-04T08:29:53;23.73;;;15.90;;
13032;SDS011;6583;42.632;23.298;2023-03-04T08:32:19;24.70;;;15.70;;
13032;SDS011;6583;42.632;23.298;2023-03-04T08:34:46;23.83;;;15.83;;
13032;SDS011;6583;42.632;23.298;2023-03-04T08:37:13;26.27;;;16.57;;
13032;SDS011;6583;42.632;23.298;2023-03-04T08:39:40;28.60;;;17.47;;
13032;SDS011;6583;42.632;23.298;2023-03-04T08:42:06;27.63;;;17.60;;
13032;SDS011;6583;42.632;23.298;2023-03-04T08:44:34;30.87;;;18.87;;
13032;SDS011;6583;42.632;23.298;2023-03-04T08:47:01;22.90;;;15.93;;
13032;SDS011;6583;42.632;23.298;2023-03-04T08:49:27;23.73;;;14.77;;
13032;SDS011;6583;42.632;23.298;2023-03-04T08:51:54;21.30;;;14.17;;
13032;SDS011;6583;42.632;23.298;2023-03-04T08:54:21;22.67;;;15.00;;
13032;SDS011;6583;42.632;23.298;2023-03-04T08:56:47;22.53;;;15.37;;
13032;SDS011;6583;42.632;23.298;2023-03-04T08:59:14;30.27;;;16.87;;
13032;SDS011;6583;42.632;23.298;2023-03-04T09:01:42;24.93;;;16.97;;
13032;SDS011;6583;42.632;23.298;2023-03-04T09:04:08;28.20;;;17.13;;
13032;SDS011;6583;42.632;23.298;2023-03-04T09:06:35;21.07;;;14.43;;
13032;SDS011;6583;42.632;23.298;2023-03-04T09:09:02;18.23;;;13.33;;
13032;SDS011;6583;42.632;23.298;2023-03-04T09:11:29;20.00;;;12.57;;
13032;SDS011;6583;42.632;23.298;2023-03-04T09:13:56;21.77;;;13.53;;
13032;SDS011;6583;42.632;23.298;2023-03-04T09:16:23;17.30;;;11.50;;
13032;SDS011;6583;42.632;23.298;2023-03-04T09:18:51;18.27;;;11.63;;
13032;SDS011;6583;42.632;23.298;2023-03-04T09:21:17;15.67;;;11.27;;
13032;SDS011;6583;42.632;23.298;2023-03-04T09:23:44;17.17;;;11.60;;
13032;SDS011;6583;42.632;23.298;2023-03-04T09:26:15;18.97;;;12.53;;
13032;SDS011;6583;42.632;23.298;2023-03-04T09:28:44;16.97;;;11.80;;
13032;SDS011;6583;42.632;23.298;2023-03-04T09:31:11;16.33;;;11.57;;
13032;SDS011;6583;42.632;23.298;2023-03-04T09:33:38;17.73;;;12.20;;
13032;SDS011;6583;42.632;23.298;2023-03-04T09:36:09;19.90;;;12.37;;
13032;SDS011;6583;42.632;23.298;2023-03-04T09:38:37;22.47;;;13.63;;
13032;SDS011;6583;42.632;23.298;2023-03-04T09:41:05;24.50;;;15.23;;
13032;SDS011;6583;42.632;23.298;2023-03-04T09:43:34;26.37;;;15.30;;
13032;SDS011;6583;42.632;23.298;2023-03-04T09:46:06;23.37;;;15.57;;
13032;SDS011;6583;42.632;23.298;2023-03-04T09:48:38;23.33;;;16.40;;
13032;SDS011;6583;42.632;23.298;2023-03-04T09:51:13;23.70;;;16.17;;
13032;SDS011;6583;42.632;23.298;2023-03-04T09:53:46;23.87;;;15.83;;
13032;SDS011;6583;42.632;23.298;2023-03-04T09:56:23;26.27;;;15.87;;
13032;SDS011;6583;42.632;23.298;2023-03-04T09:58:52;26.17;;;16.43;;
13032;SDS011;6583;42.632;23.298;2023-03-04T10:01:30;27.23;;;17.17;;
13032;SDS011;6583;42.632;23.298;2023-03-04T10:04:02;27.63;;;16.43;;
13032;SDS011;6583;42.632;23.298;2023-03-04T10:06:37;28.10;;;16.33;;
13032;SDS011;6583;42.632;23.298;2023-03-04T10:09:09;26.63;;;18.30;;
13032;SDS011;6583;42.632;23.298;2023-03-04T10:11:40;23.63;;;15.27;;
13032;SDS011;6583;42.632;23.298;2023-03-04T10:14:14;25.13;;;16.73;;
13032;SDS011;6583;42.632;23.298;2023-03-04T10:16:58;28.83;;;16.53;;
13032;SDS011;6583;42.632;23.298;2023-03-04T10:19:29;23.30;;;15.93;;
13032;SDS011;6583;42.632;23.298;2023-03-04T10:22:11;21.97;;;15.13;;
13032;SDS011;6583;42.632;23.298;2023-03-04T10:24:45;24.90;;;16.03;;
13032;SDS011;6583;42.632;23.298;2023-03-04T10:27:12;25.87;;;15.57;;
13032;SDS011;6583;42.632;23.298;2023-03-04T10:29:42;23.53;;;15.77;;
13032;SDS011;6583;42.632;23.298;2023-03-04T10:32:10;25.10;;;16.17;;
13032;SDS011;6583;42.632;23.298;2023-03-04T10:34:39;23.53;;;15.67;;
13032;SDS011;6583;42.632;23.298;2023-03-04T10:37:05;22.63;;;16.23;;
13032;SDS011;6583;42.632;23.298;2023-03-04T10:39:36;23.30;;;16.50;;
13032;SDS011;6583;42.632;23.298;2023-03-04T10:42:04;20.40;;;15.20;;
13032;SDS011;6583;42.632;23.298;2023-03-04T10:44:50;24.63;;;16.23;;
13032;SDS011;6583;42.632;23.298;2023-03-04T10:47:21;23.37;;;15.23;;
13032;SDS011;6583;42.632;23.298;2023-03-04T10:49:51;25.00;;;16.10;;
13032;SDS011;6583;42.632;23.298;2023-03-04T10:52:22;24.57;;;15.93;;
13032;SDS011;6583;42.632;23.298;2023-03-04T10:54:55;23.10;;;15.27;;
13032;SDS011;6583;42.632;23.298;2023-03-04T10:57:23;22.13;;;14.77;;
13032;SDS011;6583;42.632;23.298;2023-03-04T10:59:58;26.60;;;16.30;;
13032;SDS011;6583;42.632;23.298;2023-03-04T11:02:26;22.33;;;15.00;;
13032;SDS011;6583;42.632;23.298;2023-03-04T11:04:55;22.70;;;15.20;;
13032;SDS011;6583;42.632;23.298;2023-03-04T11:07:31;22.90;;;15.57;;
13032;SDS011;6583;42.632;23.298;2023-03-04T11:10:07;21.87;;;15.07;;
13032;SDS011;6583;42.632;23.298;2023-03-04T11:12:39;23.70;;;16.10;;
13032;SDS011;6583;42.632;23.298;2023-03-04T11:15:15;23.60;;;15.77;;
13032;SDS011;6583;42.632;23.298;2023-03-04T11:17:52;24.40;;;16.43;;
13032;SDS011;6583;42.632;23.298;2023-03-04T11:20:25;21.63;;;16.10;;
13032;SDS011;6583;42.632;23.298;2023-03-04T11:22:56;26.40;;;16.63;;
13032;SDS011;6583;42.632;23.298;2023-03-04T11:25:30;23.17;;;16.83;;
13032;SDS011;6583;42.632;23.298;2023-03-04T11:28:00;24.03;;;16.00;;
13032;SDS011;6583;42.632;23.298;2023-03-04T11:30:32;25.43;;;17.43;;
13032;SDS011;6583;42.632;23.298;2023-03-04T11:33:09;23.73;;;16.90;;
13032;SDS011;6583;42.632;23.298;2023-03-04T11:35:48;25.40;;;17.57;;
13032;SDS011;6583;42.632;23.298;2023-03-04T11:38:19;23.93;;;17.43;;
13032;SDS011;6583;42.632;23.298;2023-03-04T11:40:51;20.90;;;15.93;;
13032;SDS011;6583;42.632;23.298;2023-03-04T11:43:21;21.13;;;15.03;;
13032;SDS011;6583;42.632;23.298;2023-03-04T11:48:58;21.17;;;15.33;;
13032;SDS011;6583;42.632;23.298;2023-03-04T11:51:37;23.50;;;16.43;;
13032;SDS011;6583;42.632;23.298;2023-03-04T11:54:16;20.40;;;15.10;;
13032;SDS011;6583;42.632;23.298;2023-03-04T11:56:57;21.83;;;14.90;;
13032;SDS011;6583;42.632;23.298;2023-03-04T11:59:33;24.03;;;15.57;;
13032;SDS011;6583;42.632;23.298;2023-03-04T12:02:11;22.93;;;16.60;;
13032;SDS011;6583;42.632;23.298;2023-03-04T12:04:47;27.10;;;17.10;;
13032;SDS011;6583;42.632;23.298;2023-03-04T12:07:42;23.37;;;15.73;;
13032;SDS011;6583;42.632;23.298;2023-03-04T12:10:27;21.67;;;16.13;;
13032;SDS011;6583;42.632;23.298;2023-03-04T12:16:04;25.90;;;16.73;;
13032;SDS011;6583;42.632;23.298;2023-03-04T12:18:47;22.00;;;16.03;;
13032;SDS011;6583;42.632;23.298;2023-03-04T12:21:26;22.00;;;15.43;;
13032;SDS011;6583;42.632;23.298;2023-03-04T12:27:20;25.27;;;17.70;;
13032;SDS011;6583;42.632;23.298;2023-03-04T12:29:57;22.87;;;16.43;;
13032;SDS011;6583;42.632;23.298;2023-03-04T12:32:33;27.13;;;18.57;;
13032;SDS011;6583;42.632;23.298;2023-03-04T12:35:23;27.13;;;19.30;;
13032;SDS011;6583;42.632;23.298;2023-03-04T12:38:06;30.77;;;20.77;;
13032;SDS011;6583;42.632;23.298;2023-03-04T12:40:47;28.30;;;19.20;;
13032;SDS011;6583;42.632;23.298;2023-03-04T12:43:29;28.73;;;20.40;;
13032;SDS011;6583;42.632;23.298;2023-03-04T12:46:09;28.33;;;19.43;;
13032;SDS011;6583;42.632;23.298;2023-03-04T12:48:42;30.17;;;20.47;;
13032;SDS011;6583;42.632;23.298;2023-03-04T12:51:22;27.30;;;19.67;;
13032;SDS011;6583;42.632;23.298;2023-03-04T12:53:59;29.80;;;21.53;;
13032;SDS011;6583;42.632;23.298;2023-03-04T12:56:37;30.03;;;21.20;;
13032;SDS011;6583;42.632;23.298;2023-03-04T12:59:08;29.20;;;21.07;;
13032;SDS011;6583;42.632;23.298;2023-03-04T13:01:42;31.80;;;22.77;;
13032;SDS011;6583;42.632;23.298;2023-03-04T13:04:16;34.23;;;23.80;;
13032;SDS011;6583;42.632;23.298;2023-03-04T13:06:56;36.67;;;24.40;;
13032;SDS011;6583;42.632;23.298;2023-03-04T13:09:35;33.10;;;22.43;;
13032;SDS011;6583;42.632;23.298;2023-03-04T13:12:13;35.70;;;22.33;;
13032;SDS011;6583;42.632;23.298;2023-03-04T13:15:13;29.97;;;21.50;;
13032;SDS011;6583;42.632;23.298;2023-03-04T13:17:45;30.73;;;21.07;;
13032;SDS011;6583;42.632;23.298;2023-03-04T13:20:19;31.63;;;21.83;;
13032;SDS011;6583;42.632;23.298;2023-03-04T13:22:53;31.33;;;21.83;;
13032;SDS011;6583;42.632;23.298;2023-03-04T13:25:37;34.13;;;23.33;;
13032;SDS011;6583;42.632;23.298;2023-03-04T13:28:14;32.90;;;22.40;;
13032;SDS011;6583;42.632;23.298;2023-03-04T13:36:57;27.80;;;19.53;;
13032;SDS011;6583;42.632;23.298;2023-03-04T13:39:29;26.47;;;18.77;;
13032;SDS011;6583;42.632;23.298;2023-03-04T13:41:56;29.73;;;20.73;;
13032;SDS011;6583;42.632;23.298;2023-03-04T13:44:35;29.90;;;20.97;;
13032;SDS011;6583;42.632;23.298;2023-03-04T13:47:25;31.03;;;21.63;;
13032;SDS011;6583;42.632;23.298;2023-03-04T13:52:48;33.40;;;21.90;;
13032;SDS011;6583;42.632;23.298;2023-03-04T13:55:32;31.00;;;21.50;;
13032;SDS011;6583;42.632;23.298;2023-03-04T13:58:06;31.37;;;21.90;;
13032;SDS011;6583;42.632;23.298;2023-03-04T14:00:46;39.20;;;22.03;;
13032;SDS011;6583;42.632;23.298;2023-03-04T14:03:18;31.43;;;21.33;;
13032;SDS011;6583;42.632;23.298;2023-03-04T14:05:47;29.77;;;21.90;;
13032;SDS011;6583;42.632;23.298;2023-03-04T14:08:18;34.10;;;21.63;;
13032;SDS011;6583;42.632;23.298;2023-03-04T14:10:53;32.13;;;21.77;;
13032;SDS011;6583;42.632;23.298;2023-03-04T14:13:21;34.20;;;22.70;;
13032;SDS011;6583;42.632;23.298;2023-03-04T14:15:52;32.33;;;22.33;;
13032;SDS011;6583;42.632;23.298;2023-03-04T14:18:20;33.27;;;22.13;;
13032;SDS011;6583;42.632;23.298;2023-03-04T14:20:49;40.80;;;22.67;;
13032;SDS011;6583;42.632;23.298;2023-03-04T14:23:24;33.70;;;23.17;;
13032;SDS011;6583;42.632;23.298;2023-03-04T14:26:02;34.37;;;23.00;;
13032;SDS011;6583;42.632;23.298;2023-03-04T14:28:36;34.20;;;23.17;;
13032;SDS011;6583;42.632;23.298;2023-03-04T14:31:09;31.37;;;23.60;;
13032;SDS011;6583;42.632;23.298;2023-03-04T14:33:42;31.73;;;22.70;;
13032;SDS011;6583;42.632;23.298;2023-03-04T14:36:14;33.27;;;22.97;;
13032;SDS011;6583;42.632;23.298;2023-03-04T14:38:46;34.50;;;22.20;;
13032;SDS011;6583;42.632;23.298;2023-03-04T14:41:18;33.97;;;22.83;;
13032;SDS011;6583;42.632;23.298;2023-03-04T14:43:54;32.07;;;22.43;;
13032;SDS011;6583;42.632;23.298;2023-03-04T14:46:27;33.13;;;21.90;;
13032;SDS011;6583;42.632;23.298;2023-03-04T14:48:57;31.73;;;22.33;;
13032;SDS011;6583;42.632;23.298;2023-03-04T14:51:29;31.63;;;22.63;;
13032;SDS011;6583;42.632;23.298;2023-03-04T14:53:59;36.10;;;21.93;;
13032;SDS011;6583;42.632;23.298;2023-03-04T14:56:26;31.30;;;22.10;;
13032;SDS011;6583;42.632;23.298;2023-03-04T14:58:54;33.80;;;21.97;;
13032;SDS011;6583;42.632;23.298;2023-03-04T15:01:27;35.83;;;22.17;;